Terminal Aerodrome Forecast
Issued by NWS Springfield, MO

Home | Current Version | Previous Version | Text Only | Print | Product List | Glossary On
Versions: 1 2 3 4 5 6 7 8 9 10 11 12 13 14 15 16 17
198
FTUS43 KSGF 101720
TAFSGF
TAF
KSGF 101720Z 1018/1118 20012KT P6SM SCT250
     FM110100 16006KT P6SM FEW250
     FM110600 07009KT P6SM FEW200 SCT250=

USA.gov is the U.S. government's official web portal to all federal, state and local government web resources and services.